Weather at Mc Neil Island Emergency Pad Heliport

Public forecast

Using degrees Fahrenheit for public forecast. Weather courtesy of forecast.io.

Closest aviation weather report (METAR) to Mc Neil Island Emergency Pad Heliport

Closest report is Tacoma Narrows Airport, 5.5 nm (10.2 km) NE.

2024/07/12 22:53 (retrieved 36 minutes ago)

KTIW 122253Z 00000KT 10SM CLR 28/13 A3004 RMK AO2 SLP169 T02830133

Closest aviation forecast (TAF) to Mc Neil Island Emergency Pad Heliport

Closest forecast is Gray Army Air Field, 7.8 nm (14.4 km) SSE.

2024/07/12 21:09 (retrieved 2 hours ago)

TAF TAF KGRF 122100Z 1221/1403 35007KT 9999 SKC QNH2998INS BECMG 1304/1305 36005KT 9999 SKC QNH2998INS BECMG 1317/1318 01009KT 9999 SKC QNH2995INS BECMG 1401/1402 34005KT 9999 SKC QNH2995INS TX29/1300Z TN14/1313Z